1965 Tropical Cyclone JUDY (1965026S12133)


IBTrACS version v04r00. Visit IBTrACS website for data access.
Please direct all questions to the IBTrACS Q and A forum

Storm track - Intensity - Wind Radii - Intensity Data - Source Data - All data

Summary Information

Storm ID 1965026S12133
Start Jan 25 23Z
Landfall Jan 28 18Z
Max Intensity 55 kt (Feb 1 00Z), 986 mb (Jan 31 18Z)
End Feb 5 18Z
ATCF IDs ,SH211965
Track status Best track data.

Storm track plot

Map of storm track

Intensity plots

Map of storm track

Radial wind information

No radial wind information for this storm


Position and Intensity Table

BASIN ISO_TIME_________ NATURE LAT LON WMO PRES BOM PRES DS824 WIND DS824 PRES NEUMANN WIND NEUMANN PRES
degrees north degrees east mb mb kts mb kts mb
SI 1965-01-25 23:00:00 NR -11.60 133.00
SI 23:30:00 NR -11.62 133.04 1002 1002
SI 1965-01-26 00:00:00 TS -11.70 133.05 1002 25 1002
SI 03:00:00 TS -12.25 133.22 1002 25 1002
SI 05:30:00 TS -12.71 133.39 1002 1002 25 1002
SI 06:00:00 TS -12.81 133.42 1002 25 1002 30 1002
SI 09:00:00 TS -13.14 133.77 1002 25 1002 30 1002
SI 11:00:00 TS -13.26 134.05 1002 25 1002 30 1002
SI 11:30:00 TS -13.28 134.12 1002 1002 25 1002 30 1002
SI 12:00:00 TS -13.29 134.20 1002 25 1002 30 1002
SI 15:00:00 TS -13.20 134.69 1002 25 1002 30 1002
SP 18:00:00 TS -12.98 135.22 1002 25 1002 30 1002
SP 21:00:00 TS -12.79 135.75 1002 25 1002 30 1002
SP 23:00:00 TS -12.72 136.10 1002 25 1002 30 1002
SP 23:30:00 TS -12.71 136.19 1002 1002 25 1002 30 1002
SP 1965-01-27 00:00:00 TS -12.70 136.27 1002 25 1002 30 1002
SP 02:30:00 TS -12.74 136.69 1002 1002 27 1001 30 1001
SP 03:00:00 TS -12.76 136.77 1001 27 1001 30 1001
SP 05:30:00 TS -12.91 137.16 1000 1000 29 1000 30 1000
SP 06:00:00 TS -12.95 137.23 999 30 1000 30 1000
SP 09:00:00 TS -13.18 137.68 998 32 999 32 999
SP 11:00:00 TS -13.34 137.95 998 998 34 998 34 998
SP 12:00:00 TS -13.42 138.07 997 35 998 35 998
SP 15:00:00 TS -13.61 138.38 996 35 997 35 997
SP 17:00:00 TS -13.75 138.57 996 996 35 996 35 996
SP 18:00:00 TS -13.83 138.68 996 35 996 35 996
SP 21:00:00 TS -14.15 139.04 996 35 996 35 996
SP 23:00:00 TS -14.37 139.30 996 996 35 996 35 996
SP 1965-01-28 00:00:00 TS -14.48 139.42 996 35 996 35 996
SP 03:00:00 TS -14.79 139.79 996 35 996 35 996
SP 06:00:00 TS -15.08 140.15 996 35 996 35 996
SP 09:00:00 TS -15.35 140.49 996 35 996 35 996
SP 11:00:00 TS -15.54 140.71 996 996 35 996 35 996
SP 12:00:00 TS -15.64 140.82 996 35 996 35 996
SP 15:00:00 TS -15.96 141.11 996 35 996 37 996
SP 17:00:00 TS -16.18 141.30 996 996 35 996 39 996
SP 18:00:00 TS -16.29 141.41 996 35 996 40 996
SP 21:00:00 TS -16.61 141.73 996 35 996 40 996
SP 23:00:00 TS -16.83 141.94 996 996 35 996 40 996
SP 1965-01-29 00:00:00 TS -16.94 142.04 996 35 996 40 996
SP 02:00:00 TS -17.17 142.24 998 998 34 996 38 996
SP 03:00:00 TS -17.29 142.35 998 33 997 37 997
SP 06:00:00 TS -17.60 142.71 998 32 998 35 998
SP 09:00:00 TS -17.86 143.12 999 31 999 32 999
SP 11:00:00 TS -17.97 143.40 1000 1000 30 999 30 999
SP 12:00:00 TS -18.01 143.54 999 30 1000 30 1000
SP 15:00:00 TS -18.02 143.98 999 32 999
SP 18:00:00 TS -17.93 144.44 998 35 999
SP 21:00:00 TS -17.83 144.92 998 35 998
SP 23:00:00 TS -17.74 145.27 998 998 35 998
SP 1965-01-30 00:00:00 TS -17.68 145.45 997 35 998
SP 03:00:00 TS -17.48 146.01 997 35 997
SP 03:30:00 TS -17.44 146.11 997 997 35 996
SP 06:00:00 TS -17.29 146.63 995 35 996
SP 09:00:00 TS -17.17 147.28 994 37 994
SP 11:00:00 TS -17.12 147.77 993 993 39 993
SP 12:00:00 TS -17.09 148.05 992 40 993 40 993
SP 15:00:00 TS -17.01 149.01 992 41 992 42 992
SP 18:00:00 TS -16.98 150.04 991 42 991 45 991
SP 21:00:00 TS -17.04 151.04 990 43 990 45 990
SP 23:00:00 TS -17.15 151.66 990 990 44 990 45 990
SP 1965-01-31 00:00:00 TS -17.23 151.94 989 45 990 45 990
SP 03:00:00 TS -17.57 152.68 989 46 989 47 989
SP 06:00:00 TS -18.01 153.37 988 47 989 50 989
SP 09:00:00 TS -18.46 154.10 988 48 988 50 988
SP 11:00:00 TS -18.76 154.61 988 988 49 988 50 988
SP 12:00:00 TS -18.92 154.88 987 50 988 50 988
SP 15:00:00 TS -19.39 155.74 987 50 987
SP 18:00:00 TS -19.87 156.63 986 50 987
SP 21:00:00 TS -20.32 157.50 986 52 986
SP 23:00:00 TS -20.61 158.05 986 986 54 986
SP 1965-02-01 00:00:00 TS -20.74 158.31 986 55 986
SP 03:00:00 TS -21.11 159.04 986 55 986
SP 06:00:00 TS -21.45 159.66 986 55 986
SP 09:00:00 TS -21.80 160.20 986 55 986
SP 11:00:00 TS -22.03 160.49 986 986 55 986
SP 12:00:00 TS -22.13 160.61 986 50 986 55 986
SP 15:00:00 TS -22.44 160.86 986 50 986 55 986
SP 18:00:00 TS -22.73 160.96 986 50 986 55 986
SP 21:00:00 TS -23.02 160.99 986 50 986 55 986
SP 23:00:00 TS -23.23 160.94 986 986 50 986 55 986
SP 1965-02-02 00:00:00 TS -23.34 160.91 986 50 986 55 986
SP 03:00:00 TS -23.73 160.72 987 48 987 52 987
SP 06:00:00 TS -24.14 160.46 988 47 988 50 988
SP 09:00:00 TS -24.55 160.18 989 46 989 47 989
SP 11:00:00 TS -24.81 159.99 990 990 45 989 45 989
SP 12:00:00 TS -24.94 159.90 990 45 990 45 990
SP 15:00:00 TS -25.30 159.63 990 45 990 45 990
SP 18:00:00 TS -25.65 159.35 990 45 990 45 990
SP 21:00:00 TS -25.99 159.05 990 45 990 45 990
SP 23:00:00 TS -26.22 158.85 990 990 45 990 45 990
SP 1965-02-03 00:00:00 TS -26.34 158.75 990 45 990 45 990
SP 03:00:00 TS -26.67 158.44 990 45 990 45 990
SP 06:00:00 TS -27.01 158.13 990 45 990 45 990
SP 09:00:00 TS -27.34 157.83 990 45 990 45 990
SP 11:00:00 TS -27.57 157.66 990 990 45 990 45 990
SP 12:00:00 TS -27.69 157.57 990 45 990 45 990
SP 15:00:00 TS -28.06 157.33 990 43 990 45 990
SP 18:00:00 TS -28.43 157.17 991 42 991 45 991
SP 21:00:00 TS -28.79 157.11 992 41 992 42 992
SP 23:00:00 TS -29.02 157.15 993 993 40 992 40 992
SP 1965-02-04 00:00:00 TS -29.14 157.20 993 40 993 40 993
SP 03:00:00 TS -29.51 157.42 993 40 993 40 993
SP 05:00:00 TS -29.72 157.65 994 994 40 993 40 993
SP 06:00:00 TS -29.81 157.77 994 40 994 40 994
SP 09:00:00 TS -29.99 158.19 996 37 996 37 996
SP 11:00:00 TS -30.07 158.51 998 998 35 997 35 997
SP 12:00:00 TS -30.11 158.66 998 35 998 35 998
SP 15:00:00 TS -30.25 159.23 999 32 999 32 999
SP 18:00:00 TS -30.41 159.91 1000 30 1000 30 1000
SP 21:00:00 TS -30.60 160.69 1001 27 1001 27 1001
SP 23:00:00 TS -30.74 161.21 1002 1002 25 1001 25 1001
SP 1965-02-05 00:00:00 TS -30.81 161.49 1002 25 1002 25 1002
SP 03:00:00 TS -30.93 162.02 1003 22 1003 22 1003
SP 06:00:00 TS -31.03 162.46 1004 20 1004 20 1004
SP 09:00:00 TS -31.13 162.90 1005 17 1005 17 1005
SP 11:00:00 TS -31.20 163.22 1006 1006 15 1005 15 1005
SP 12:00:00 TS -31.23 163.40 1006 15 1006 15 1006
SP 15:00:00 TS -31.36 164.03 1007 12 1007
SP 17:00:00 TS -31.46 164.48 1008 1008 10 1007
SP 18:00:00 TS -31.50 164.70 10 1008

Source Information

Agency Information
USA bsh211965.txt
TOKYO
CMA
HKO
NEWDELHI
REUNION
BOM IDCKMSTM0S.csv:Line=4180:JUDY
NADI
WELLINGTON
DS824 aus_area.dat:369:JUDY
TD9636 cons_worldwide_trop_cyclone_18710101-19891231-006:Line=7136
TD9635
NEUMANN tracks.sh:Storm=135:JUDY1:BSH2165:BM341
MLC

All available IBTrACS Data

SEASON BASIN SUBBASIN ISO_TIME_________ NATURE LAT LON WMO PRES WMO AGENCY DIST2LAND LANDFALL IFLAG USA AGENCY USA ATCF_ID USA LAT USA LON USA SSHS BOM LAT BOM LON BOM PRES BOM PRES_METHOD DS824 LAT DS824 LON DS824 STAGE DS824 WIND DS824 PRES TD9636 LAT TD9636 LON TD9636 STAGE NEUMANN LAT NEUMANN LON NEUMANN CLASS NEUMANN WIND NEUMANN PRES STORM SPEED STORM DIR
Year degrees north degrees east mb km km degrees north degrees east 1 degrees north degrees east mb degrees north degrees east kts mb degrees north degrees east degrees north degrees east kts mb kts degrees
1965 SI WA 1965-01-25 23:00:00 NR -11.60 133.00 0 0 __________O___ -1 -11.60 133.00 1 5 116
1965 SI WA 23:30:00 NR -11.62 133.04 1002 bom 0 0 ______O___P___ -1 -11.60 133.00 1002 -11.63 133.06 1 7 156
1965 SI WA 1965-01-26 00:00:00 TS -11.70 133.05 0 0 O_____P__OP___ jtwc_sh SH211965 -11.80 133.00 -1 -11.73 133.00 1002 -11.60 133.00 TC 25 1002 -11.65 133.12 1 11 164
1965 SI WA 03:00:00 TS -12.25 133.22 0 0 P_____P__PP___ SH211965 -12.46 133.17 -1 -12.48 133.06 1002 -12.36 133.05 TC 25 1002 -11.81 133.48 1 12 162
1965 SI WA 05:30:00 TS -12.71 133.39 1002 bom 0 0 P_____O__PP___ SH211965 -12.92 133.35 -1 -13.00 133.20 1002 -12.91 133.16 TC 25 1002 -11.94 133.79 1 12 161
1965 SI WA 06:00:00 TS -12.81 133.42 0 0 O_____P__OP_O_ jtwc_sh SH211965 -13.00 133.40 -1 -13.09 133.24 1002 -13.00 133.20 TC 25 1002 -11.96 133.85 1 -12.90 133.40 TC 30 1002 10 139
1965 SI WA 09:00:00 TS -13.14 133.77 0 0 P_____P__PP_P_ SH211965 -13.33 133.75 -1 -13.46 133.61 1002 -13.42 133.54 TC 25 1002 -12.11 134.24 1 -13.28 133.71 TC 30 1002 9 126
1965 SI WA 11:00:00 TS -13.26 134.05 0 0 P_____P__PO_P_ SH211965 -13.41 134.04 -1 -13.59 133.92 1002 -13.56 133.84 TC 25 1002 -12.20 134.50 7 -13.46 133.95 TC 30 1002 9 112
1965 SI WA 11:30:00 TS -13.28 134.12 1002 bom 0 0 P_____O__PP_P_ SH211965 -13.41 134.12 -1 -13.60 134.00 1002 -13.59 133.92 TC 25 1002 -12.22 134.57 7 -13.48 134.02 TC 30 1002 9 102
1965 SI WA 12:00:00 TS -13.29 134.20 0 0 O_____P__OP_O_ jtwc_sh SH211965 -13.40 134.20 -1 -13.61 134.07 1002 -13.60 134.00 TC 25 1002 -12.24 134.64 7 -13.50 134.10 TC 30 1002 10 81
1965 SI WA 15:00:00 TS -13.20 134.69 0 0 P_____P__PP_P_ SH211965 -13.20 134.73 -1 -13.47 134.55 1002 -13.50 134.48 TC 25 1002 -12.37 135.05 7 -13.43 134.63 TC 30 1002 10 73
1965 SP EA 18:00:00 TS -12.98 135.22 0 0 O_____P__PP_O_ jtwc_sh SH211965 -12.90 135.30 -1 -13.17 135.06 1002 -13.21 135.00 TC 25 1002 -12.50 135.48 7 -13.20 135.20 TC 30 1002 11 69
1965 SP EA 21:00:00 TS -12.79 135.75 0 0 P_____P__PP_P_ SH211965 -12.75 135.87 -1 -12.86 135.62 1002 -12.88 135.54 TC 25 1002 -12.62 135.91 7 -12.91 135.70 TC 30 1002 11 73
1965 SP EA 23:00:00 TS -12.72 136.10 0 0 P_____P__PO_P_ SH211965 -12.70 136.23 -1 -12.72 136.00 1002 -12.73 135.91 TC 25 1002 -12.70 136.20 1 -12.75 136.03 TC 30 1002 10 79
1965 SP EA 23:30:00 TS -12.71 136.19 1002 bom 0 0 P_____O__PP_P_ SH211965 -12.70 136.32 -1 -12.70 136.10 1002 -12.71 136.01 TC 25 1002 -12.72 136.27 1 -12.72 136.11 TC 30 1002 10 85
1965 SP EA 1965-01-27 00:00:00 TS -12.70 136.27 0 0 O_____P__OP_O_ jtwc_sh SH211965 -12.70 136.40 -1 -12.68 136.20 1002 -12.70 136.10 TC 25 1002 -12.73 136.35 1 -12.70 136.20 TC 30 1002 10 94
1965 SP EA 02:30:00 TS -12.74 136.69 1002 bom 0 0 P_____O__PP_P_ SH211965 -12.74 136.76 -1 -12.70 136.70 1002 -12.76 136.57 TC 27 1001 -12.82 136.71 1 -12.70 136.66 TC 30 1001 10 97
1965 SP EA 03:00:00 TS -12.76 136.77 15 15 P_____P__PP_P_ SH211965 -12.75 136.82 -1 -12.73 136.79 1001 -12.79 136.66 TC 27 1001 -12.83 136.78 1 -12.72 136.76 TC 30 1001 10 111
1965 SP EA 05:30:00 TS -12.91 137.16 1000 bom 54 54 P_____O__PP_P_ SH211965 -12.87 137.14 -1 -13.00 137.20 1000 -12.96 137.11 TC 29 1000 -12.92 137.14 1 -12.86 137.21 TC 30 1000 10 112
1965 SP EA 06:00:00 TS -12.95 137.23 54 54 O_____P__OP_O_ jtwc_sh SH211965 -12.90 137.20 -1 -13.05 137.28 999 -13.00 137.20 TC 30 1000 -12.94 137.22 1 -12.90 137.30 TC 30 1000 10 117
1965 SP EA 09:00:00 TS -13.18 137.68 109 109 P_____P__PP_P_ SH211965 -13.08 137.61 -1 -13.34 137.74 998 -13.30 137.69 TC 32 999 -13.08 137.63 1 -13.19 137.79 TC 32 999 10 119
1965 SP EA 11:00:00 TS -13.34 137.95 998 bom 131 127 P_____O__PO_P_ SH211965 -13.22 137.87 -1 -13.50 138.00 998 -13.51 137.98 TC 34 998 -13.20 137.90 7 -13.41 138.08 TC 34 998 9 123
1965 SP EA 12:00:00 TS -13.42 138.07 137 134 O_____P__OP_O_ jtwc_sh SH211965 -13.30 138.00 -1 -13.55 138.10 997 -13.60 138.10 TC 35 998 -13.27 138.03 7 -13.50 138.20 TC 35 998 7 122
1965 SP EA 15:00:00 TS -13.61 138.38 163 162 P_____P__PP_P_ SH211965 -13.53 138.36 -1 -13.68 138.33 996 -13.74 138.36 TC 35 997 -13.51 138.40 7 -13.64 138.46 TC 35 997 7 124
1965 SP EA 17:00:00 TS -13.75 138.57 996 bom 184 181 P_____O__PP_P_ SH211965 -13.71 138.59 -1 -13.80 138.50 996 -13.83 138.51 TC 35 996 -13.69 138.63 7 -13.73 138.61 TC 35 996 7 127
1965 SP EA 18:00:00 TS -13.83 138.68 191 188 O_____P__OP_O_ jtwc_sh SH211965 -13.80 138.70 -1 -13.90 138.62 996 -13.90 138.60 TC 35 996 -13.79 138.74 7 -13.80 138.70 TC 35 996 9 131
1965 SP EA 21:00:00 TS -14.15 139.04 216 216 P_____P__PP_P_ SH211965 -14.08 139.05 -1 -14.25 139.02 996 -14.23 138.98 TC 35 996 -14.09 139.08 7 -14.14 139.08 TC 35 996 10 132
1965 SP EA 23:00:00 TS -14.37 139.30 996 bom 237 226 P_____O__PO_P_ SH211965 -14.29 139.28 -1 -14.50 139.30 996 -14.48 139.26 TC 35 996 -14.30 139.30 1 -14.38 139.36 TC 35 996 10 132
1965 SP EA 1965-01-28 00:00:00 TS -14.48 139.42 226 186 O_____P__OP_O_ jtwc_sh SH211965 -14.40 139.40 -1 -14.60 139.44 996 -14.60 139.40 TC 35 996 -14.40 139.41 1 -14.50 139.50 TC 35 996 10 131
1965 SP EA 03:00:00 TS -14.79 139.79 186 156 P_____P__PP_P_ SH211965 -14.75 139.76 -1 -14.86 139.84 996 -14.88 139.81 TC 35 996 -14.71 139.74 1 -14.76 139.85 TC 35 996 9 130
1965 SP EA 06:00:00 TS -15.08 140.15 146 109 O_____P__PP_O_ jtwc_sh SH211965 -15.10 140.10 -1 -15.10 140.23 996 -15.12 140.21 TC 35 996 -15.04 140.07 1 -15.00 140.20 TC 35 996 9 130
1965 SP EA 09:00:00 TS -15.35 140.49 109 85 P_____P__PP_P_ SH211965 -15.40 140.40 -1 -15.33 140.59 996 -15.35 140.58 TC 35 996 -15.37 140.39 1 -15.24 140.62 TC 35 996 9 130
1965 SP EA 11:00:00 TS -15.54 140.71 996 bom 85 72 P_____O__PO_P_ SH211965 -15.60 140.60 -1 -15.50 140.80 996 -15.51 140.80 TC 35 996 -15.60 140.60 1 -15.41 140.88 TC 35 996 8 133
1965 SP EA 12:00:00 TS -15.64 140.82 72 32 O_____P__OP_O_ jtwc_sh SH211965 -15.70 140.70 -1 -15.60 140.89 996 -15.60 140.90 TC 35 996 -15.72 140.70 1 -15.50 141.00 TC 35 996 9 138
1965 SP EA 15:00:00 TS -15.96 141.11 32 10 P_____P__PP_P_ SH211965 -16.04 141.05 -1 -15.90 141.13 996 -15.89 141.15 TC 35 996 -16.08 141.02 1 -15.79 141.26 TC 37 996 9 139
1965 SP EA 17:00:00 TS -16.18 141.30 996 bom 10 0 P_____O__PP_P_ SH211965 -16.28 141.29 -1 -16.10 141.30 996 -16.10 141.32 TC 35 996 -16.32 141.23 1 -16.00 141.41 TC 39 996 9 139
1965 SP EA 18:00:00 TS -16.29 141.41 0 0 O_____P__OP_O_ jtwc_sh SH211965 -16.40 141.40 -1 -16.19 141.42 996 -16.20 141.40 TC 35 996 -16.44 141.33 1 -16.10 141.50 TC 40 996 9 136
1965 SP EA 21:00:00 TS -16.61 141.73 0 0 P_____P__PP_P_ SH211965 -16.76 141.69 -1 -16.48 141.81 996 -16.50 141.68 TC 35 996 -16.79 141.67 1 -16.39 141.85 TC 40 996 9 137
1965 SP EA 23:00:00 TS -16.83 141.94 996 bom 0 0 P_____O__PO_P_ SH211965 -16.99 141.89 -1 -16.70 142.00 996 -16.70 141.89 TC 35 996 -17.00 141.90 2 -16.59 142.09 TC 40 996 9 138
1965 SP EA 1965-01-29 00:00:00 TS -16.94 142.04 0 0 O_____P__OP_O_ jtwc_sh SH211965 -17.10 142.00 -1 -16.83 142.04 996 -16.80 142.00 TC 35 996 -17.11 142.02 2 -16.70 142.20 TC 40 996 9 140
1965 SP EA 02:00:00 TS -17.17 142.24 998 bom 0 0 P_____O__PP_P_ SH211965 -17.32 142.25 -1 -17.10 142.10 998 -17.02 142.21 TC 34 996 -17.33 142.27 2 -16.93 142.37 TC 38 996 9 140
1965 SP EA 03:00:00 TS -17.29 142.35 0 0 P_____P__PP_P_ SH211965 -17.43 142.38 -1 -17.23 142.17 998 -17.14 142.32 TC 33 997 -17.44 142.40 2 -17.05 142.44 TC 37 997 9 133
1965 SP EA 06:00:00 TS -17.60 142.71 0 0 O_____P__PP_O_ jtwc_sh SH211965 -17.70 142.80 -1 -17.59 142.51 998 -17.47 142.67 TC 32 998 -17.71 142.80 2 -17.40 142.70 TC 35 998 9 128
1965 SP EA 09:00:00 TS -17.86 143.12 0 0 P_____P__PP_P_ SH211965 -17.90 143.19 -1 -17.88 142.97 999 -17.77 143.06 TC 31 999 -17.92 143.21 2 -17.77 143.07 TC 32 999 9 120
1965 SP EA 11:00:00 TS -17.97 143.40 1000 bom 0 0 P_____O__PO_P_ SH211965 -17.98 143.46 -1 -18.00 143.30 1000 -17.93 143.35 TC 30 999 -18.00 143.50 1 -17.95 143.35 TC 30 999 9 111
1965 SP EA 12:00:00 TS -18.01 143.54 0 0 O_____P__OP_O_ jtwc_sh SH211965 -18.00 143.60 -1 -18.04 143.43 999 -18.00 143.50 TC 30 1000 -18.02 143.64 1 -18.00 143.50 TC 30 1000 8 94
1965 SP EA 15:00:00 TS -18.02 143.98 0 0 P_____P__PP_P_ SH211965 -17.99 144.04 -1 -18.08 143.82 999 -18.06 143.97 TC -18.02 144.07 1 -17.95 143.94 TC 32 999 9 84
1965 SP EA 18:00:00 TS -17.93 144.44 0 0 O_____P__PP_O_ jtwc_sh SH211965 -17.90 144.50 -1 -18.01 144.24 998 -18.02 144.49 TC -17.93 144.51 1 -17.80 144.40 TC 35 999 9 78
1965 SP EA 21:00:00 TS -17.83 144.92 0 0 P_____P__PP_P_ SH211965 -17.82 144.99 -1 -17.85 144.72 998 -17.90 145.05 TC -17.80 144.98 1 -17.76 144.81 TC 35 998 10 76
1965 SP EA 23:00:00 TS -17.74 145.27 998 bom 0 0 P_____O__PO_P_ SH211965 -17.75 145.33 -1 -17.70 145.10 998 -17.79 145.45 TC -17.70 145.30 1 -17.73 145.12 TC 35 998 10 74
1965 SP EA 1965-01-30 00:00:00 TS -17.68 145.45 0 0 O_____P__PP_O_ jtwc_sh SH211965 -17.70 145.50 -1 -17.61 145.30 997 -17.73 145.65 TC -17.65 145.44 1 -17.70 145.30 TC 35 998 11 70
1965 SP EA 03:00:00 TS -17.48 146.01 0 0 P_____P__PP_P_ SH211965 -17.50 145.99 -1 -17.34 145.98 997 -17.54 146.30 TC -17.49 145.85 1 -17.51 145.94 TC 35 997 12 69
1965 SP EA 03:30:00 TS -17.44 146.11 997 bom 0 0 P_____O__PP_P_ SH211965 -17.46 146.08 -1 -17.30 146.10 997 -17.51 146.42 TC -17.46 145.93 1 -17.47 146.06 TC 35 996 12 72
1965 SP EA 06:00:00 TS -17.29 146.63 54 54 O_____P__PP_O_ jtwc_sh SH211965 -17.30 146.50 -1 -17.17 146.75 995 -17.36 147.00 TC -17.32 146.32 1 -17.30 146.70 TC 35 996 13 76
1965 SP EA 09:00:00 TS -17.17 147.28 129 129 P_____P__PP_P_ SH211965 -17.18 146.95 -1 -17.11 147.61 994 -17.20 147.73 TC -17.17 146.91 1 -17.17 147.53 TC 37 994 13 81
1965 SP EA 11:00:00 TS -17.12 147.77 993 bom 183 183 P_____O__PO_P_ SH211965 -17.13 147.35 -1 -17.10 148.20 993 -17.12 148.24 TC -17.10 147.40 1 -17.12 148.11 TC 39 993 15 84
1965 SP EA 12:00:00 TS -17.09 148.05 204 204 O_____P__OP_O_ jtwc_sh SH211965 -17.10 147.60 -1 -17.07 148.48 992 -17.10 148.50 TC 40 993 -17.06 147.71 1 -17.10 148.40 TC 40 993 18 85
1965 SP EA 15:00:00 TS -17.01 149.01 311 311 P_____P__PP_P_ SH211965 -16.96 148.68 -1 -17.01 149.34 992 -17.04 149.31 TC 41 992 -16.97 148.79 1 -17.08 149.25 TC 42 992 19 87
1965 SP EA 18:00:00 TS -16.98 150.04 380 380 O_____P__PP_O_ jtwc_sh SH211965 -16.90 149.90 -1 -17.00 150.19 991 -17.04 150.17 TC 42 991 -16.94 149.97 1 -17.10 150.10 TC 45 991 19 91
1965 SP EA 21:00:00 TS -17.04 151.04 435 432 P_____P__PP_P_ SH211965 -16.98 151.03 -1 -17.08 151.04 990 -17.11 151.04 TC 43 990 -17.00 151.12 1 -17.09 150.96 TC 45 990 19 96
1965 SP EA 23:00:00 TS -17.15 151.66 990 bom 470 462 P_____O__PO_P_ SH211965 -17.11 151.71 -1 -17.20 151.60 990 -17.22 151.61 TC 44 990 -17.10 151.80 1 -17.14 151.52 TC 45 990 18 102
1965 SP EA 1965-01-31 00:00:00 TS -17.23 151.94 476 475 O_____P__OP_O_ jtwc_sh SH211965 -17.20 152.00 -1 -17.29 151.88 989 -17.30 151.90 TC 45 990 -17.18 152.06 1 -17.20 151.80 TC 45 990 16 113
1965 SP EA 03:00:00 TS -17.57 152.68 509 509 P_____P__PP_P_ SH211965 -17.56 152.65 -1 -17.63 152.71 989 -17.63 152.74 TC 46 989 -17.49 152.72 1 -17.54 152.60 TC 47 989 16 120
1965 SP EA 06:00:00 TS -18.01 153.37 547 542 O_____P__PP_O_ jtwc_sh SH211965 -18.00 153.20 -1 -18.08 153.53 988 -18.07 153.58 TC 47 989 -17.91 153.30 1 -18.00 153.40 TC 50 989 16 123
1965 SP EA 09:00:00 TS -18.46 154.10 561 561 P_____P__PP_P_ SH211965 -18.38 153.86 -1 -18.57 154.35 988 -18.58 154.40 TC 48 988 -18.38 153.87 1 -18.44 154.25 TC 50 988 17 123
1965 SP EA 11:00:00 TS -18.76 154.61 988 bom 571 571 P_____O__PO_P_ SH211965 -18.65 154.34 -1 -18.90 154.90 988 -18.93 154.94 TC 49 988 -18.70 154.30 1 -18.75 154.82 TC 50 988 17 122
1965 SP EA 12:00:00 TS -18.92 154.88 586 586 O_____P__OP_O_ jtwc_sh SH211965 -18.80 154.60 -1 -19.05 155.18 987 -19.10 155.20 TC 50 988 -18.85 154.58 1 -18.90 155.10 TC 50 988 19 120
1965 SP EA 15:00:00 TS -19.39 155.74 615 615 P_____P__PP_P_ SH211965 -19.30 155.48 -1 -19.49 156.03 987 -19.59 156.08 TC -19.32 155.49 1 -19.35 155.90 TC 50 987 19 120
1965 SP EA 18:00:00 TS -19.87 156.63 644 644 O_____P__PP_O_ jtwc_sh SH211965 -19.80 156.40 -1 -19.94 156.87 986 -20.09 156.97 TC -19.80 156.44 1 -19.80 156.70 TC 50 987 19 119
1965 SP EA 21:00:00 TS -20.32 157.50 662 625 P_____P__PP_P_ SH211965 -20.24 157.29 -1 -20.40 157.68 986 -20.58 157.84 TC -20.24 157.35 1 -20.25 157.57 TC 52 986 18 119
1965 SP EA 23:00:00 TS -20.61 158.05 986 bom 615 595 P_____O__PO_P_ SH211965 -20.49 157.84 -1 -20.70 158.20 986 4 -20.90 158.39 TC -20.50 157.90 2 -20.55 158.14 TC 54 986 17 119
1965 SP EA 1965-02-01 00:00:00 TS -20.74 158.31 595 527 O_____P__PP_O_ jtwc_sh SH211965 -20.60 158.10 -1 -20.86 158.48 986 -21.06 158.66 TC -20.61 158.15 2 -20.70 158.40 TC 55 986 16 119
1965 SP EA 03:00:00 TS -21.11 159.04 527 473 P_____P__PP_P_ SH211965 -20.86 158.82 -1 -21.36 159.29 986 -21.52 159.40 TC -20.89 158.83 2 -21.15 159.07 TC 55 986 14 120
1965 SP EA 06:00:00 TS -21.45 159.66 466 428 O_____P__PP_O_ jtwc_sh SH211965 -21.10 159.40 -1 -21.84 160.02 986 -21.93 160.04 TC -21.14 159.40 2 -21.60 159.70 TC 55 986 13 123
1965 SP MM 09:00:00 TS -21.80 160.20 428 409 P_____P__PP_P_ SH211965 -21.37 159.85 -1 -22.26 160.61 986 -22.30 160.55 TC -21.40 159.86 2 -22.10 160.50 TC 55 986 12 127
1965 SP MM 11:00:00 TS -22.03 160.49 986 bom 409 405 P_____O__PO_P_ SH211965 -21.58 160.09 -1 -22.50 160.90 986 -22.51 160.80 TC -21.60 160.10 2 -22.38 160.94 TC 55 986 10 132
1965 SP MM 12:00:00 TS -22.13 160.61 405 399 O_____P__OP_O_ jtwc_sh SH211965 -21.70 160.20 -1 -22.58 161.01 986 -22.60 160.90 TC 50 986 -21.72 160.23 2 -22.50 161.10 TC 55 986 8 140
1965 SP MM 15:00:00 TS -22.44 160.86 397 397 P_____P__PP_P_ SH211965 -22.14 160.56 -1 -22.76 161.21 986 -22.77 161.09 TC 50 986 -22.13 160.53 2 -22.69 161.20 TC 55 986 7 151
1965 SP MM 18:00:00 TS -22.73 160.96 410 410 O_____P__PP_O_ jtwc_sh SH211965 -22.60 160.80 -1 -22.90 161.23 986 -22.92 161.13 TC 50 986 -22.57 160.73 2 -22.80 161.10 TC 55 986 6 168
1965 SP MM 21:00:00 TS -23.02 160.99 428 428 P_____P__PP_P_ SH211965 -23.01 160.88 -1 -23.05 161.12 986 -23.08 161.06 TC 50 986 -23.01 160.81 2 -22.96 161.19 TC 55 986 6 0
1965 SP MM 23:00:00 TS -23.23 160.94 986 bom 449 449 P_____O__PO_P_ SH211965 -23.27 160.84 -1 -23.20 161.00 986 -23.21 160.96 TC 50 986 -23.30 160.80 2 -23.11 161.22 TC 55 986 7 194
1965 SP MM 1965-02-02 00:00:00 TS -23.34 160.91 456 456 O_____P__OP_O_ jtwc_sh SH211965 -23.40 160.80 -1 -23.31 160.95 986 -23.30 160.90 TC 50 986 -23.43 160.79 2 -23.20 161.20 TC 55 986 8 202
1965 SP MM 03:00:00 TS -23.73 160.72 499 499 P_____P__PP_P_ SH211965 -23.81 160.64 -1 -23.70 160.73 987 -23.67 160.71 TC 48 987 -23.82 160.67 2 -23.56 160.95 TC 52 987 9 207
1965 SP MM 06:00:00 TS -24.14 160.46 542 542 O_____P__PP_O_ jtwc_sh SH211965 -24.20 160.40 -1 -24.15 160.45 988 -24.10 160.44 TC 47 988 -24.20 160.46 2 -24.00 160.60 TC 50 988 10 211
1965 SP MM 09:00:00 TS -24.55 160.18 592 592 P_____P__PP_P_ SH211965 -24.56 160.16 -1 -24.61 160.12 989 -24.56 160.13 TC 46 989 -24.56 160.19 2 -24.46 160.35 TC 47 989 10 212
1965 SP EA 11:00:00 TS -24.81 159.99 990 bom 628 628 P_____O__PO_P_ SH211965 -24.79 159.99 -1 -24.90 159.90 990 -24.86 159.91 TC 45 989 -24.80 160.00 2 -24.76 160.19 TC 45 989 9 213
1965 SP EA 12:00:00 TS -24.94 159.90 643 624 O_____P__OP_O_ jtwc_sh SH211965 -24.90 159.90 -1 -25.03 159.80 990 -25.00 159.80 TC 45 990 -24.92 159.92 2 -24.90 160.10 TC 45 990 9 214
1965 SP EA 15:00:00 TS -25.30 159.63 624 605 P_____P__PP_P_ SH211965 -25.25 159.66 -1 -25.38 159.51 990 -25.37 159.50 TC 45 990 -25.29 159.66 2 -25.26 159.81 TC 45 990 9 215
1965 SP EA 18:00:00 TS -25.65 159.35 596 580 O_____P__PP_O_ jtwc_sh SH211965 -25.60 159.40 -1 -25.73 159.21 990 -25.71 159.20 TC 45 990 -25.64 159.39 2 -25.60 159.50 TC 45 990 9 217
1965 SP EA 21:00:00 TS -25.99 159.05 582 564 P_____P__PP_P_ SH211965 -25.96 159.11 -1 -26.07 158.90 990 -26.05 158.90 TC 45 990 -25.98 159.10 2 -25.95 159.20 TC 45 990 9 218
1965 SP EA 23:00:00 TS -26.22 158.85 990 bom 567 555 P_____O__PO_P_ SH211965 -26.19 158.90 -1 -26.30 158.70 990 -26.28 158.70 TC 45 990 -26.20 158.90 2 -26.18 159.00 TC 45 990 9 219
1965 SP EA 1965-02-03 00:00:00 TS -26.34 158.75 546 511 O_____P__OP_O_ jtwc_sh SH211965 -26.30 158.80 -1 -26.43 158.59 990 -26.40 158.60 TC 45 990 -26.30 158.79 2 -26.30 158.90 TC 45 990 9 220
1965 SP EA 03:00:00 TS -26.67 158.44 501 462 P_____P__PP_P_ SH211965 -26.61 158.50 -1 -26.81 158.26 990 -26.78 158.29 TC 45 990 -26.59 158.47 2 -26.64 158.60 TC 45 990 9 220
1965 SP EA 06:00:00 TS -27.01 158.13 462 424 O_____P__PP_O_ jtwc_sh SH211965 -26.90 158.20 -1 -27.19 157.94 990 -27.17 157.99 TC 45 990 -26.87 158.15 2 -27.00 158.30 TC 45 990 9 219
1965 SP EA 09:00:00 TS -27.34 157.83 424 407 P_____P__PP_P_ SH211965 -27.18 157.89 -1 -27.56 157.66 990 -27.54 157.72 TC 45 990 -27.18 157.86 2 -27.41 157.97 TC 45 990 8 217
1965 SP EA 11:00:00 TS -27.57 157.66 990 bom 407 396 P_____O__PO_P_ SH211965 -27.38 157.69 -1 -27.80 157.50 990 -27.78 157.57 TC 45 990 -27.40 157.70 2 -27.68 157.78 TC 45 990 8 214
1965 SP EA 12:00:00 TS -27.69 157.57 396 363 O_____P__OP_O_ jtwc_sh SH211965 -27.50 157.60 -1 -27.90 157.41 990 -27.90 157.50 TC 45 990 -27.53 157.61 2 -27.80 157.70 TC 45 990 9 211
1965 SP EA 15:00:00 TS -28.06 157.33 362 352 P_____P__PP_P_ SH211965 -27.94 157.29 -1 -28.19 157.19 990 -28.21 157.27 TC 43 990 -27.96 157.37 2 -28.11 157.58 TC 45 990 8 205
1965 SP EA 18:00:00 TS -28.43 157.17 352 340 O_____P__PP_O_ jtwc_sh SH211965 -28.40 157.10 -1 -28.47 157.03 991 -28.50 157.11 TC 42 991 -28.41 157.20 2 -28.40 157.50 TC 45 991 8 195
1965 SP EA 21:00:00 TS -28.79 157.11 340 340 P_____P__PP_P_ SH211965 -28.82 157.11 -1 -28.77 156.97 992 -28.79 157.04 TC 41 992 -28.84 157.15 2 -28.69 157.31 TC 42 992 7 0
1965 SP EA 23:00:00 TS -29.02 157.15 993 bom 350 350 P_____O__PO_P_ SH211965 -29.08 157.22 -1 -29.00 157.00 993 -28.99 157.06 TC 40 992 -29.10 157.20 2 -28.89 157.21 TC 40 992 7 169
1965 SP EA 1965-02-04 00:00:00 TS -29.14 157.20 350 350 O_____P__OP_O_ jtwc_sh SH211965 -29.20 157.30 -1 -29.14 157.03 993 -29.10 157.10 TC 40 993 -29.22 157.26 2 -29.00 157.20 TC 40 993 8 154
1965 SP EA 03:00:00 TS -29.51 157.42 374 374 P_____P__PP_P_ SH211965 -29.53 157.60 -1 -29.58 157.20 993 -29.48 157.27 TC 40 993 -29.53 157.53 2 -29.43 157.31 TC 40 993 8 146
1965 SP EA 05:00:00 TS -29.72 157.65 994 bom 397 397 P_____O__PP_P_ SH211965 -29.72 157.86 -1 -29.80 157.40 994 -29.71 157.47 TC 40 993 -29.71 157.79 2 -29.70 157.49 TC 40 993 9 134
1965 SP EA 06:00:00 TS -29.81 157.77 418 418 O_____P__OP_O_ jtwc_sh SH211965 -29.80 158.00 -1 -29.87 157.51 994 -29.80 157.60 TC 40 994 -29.79 157.93 2 -29.80 157.60 TC 40 994 8 119
1965 SP EA 09:00:00 TS -29.99 158.19 461 461 P_____P__PP_P_ SH211965 -30.03 158.39 -1 -29.96 157.94 996 -29.98 158.04 TC 37 996 -29.99 158.39 2 -29.93 157.97 TC 37 996 8 113
1965 SP EA 11:00:00 TS -30.07 158.51 998 bom 492 492 P_____O__PO_P_ SH211965 -30.15 158.66 -1 -30.00 158.30 998 -30.06 158.40 TC 35 997 -30.10 158.70 2 -29.97 158.30 TC 35 997 9 106
1965 SP EA 12:00:00 TS -30.11 158.66 510 510 O_____P__OP_O_ jtwc_sh SH211965 -30.20 158.80 -1 -30.05 158.50 998 -30.10 158.60 TC 35 998 -30.15 158.85 2 -30.00 158.50 TC 35 998 10 106
1965 SP EA 15:00:00 TS -30.25 159.23 562 562 P_____P__PP_P_ SH211965 -30.32 159.20 -1 -30.25 159.22 999 -30.27 159.27 TC 32 999 -30.25 159.27 2 -30.19 159.20 TC 32 999 11 106
1965 SP EA 18:00:00 TS -30.41 159.91 630 630 O_____P__PP_O_ jtwc_sh SH211965 -30.40 159.60 -1 -30.46 160.02 1000 -30.46 160.02 TC 30 1000 -30.32 159.67 2 -30.40 160.00 TC 30 1000 13 106
1965 SP MM 21:00:00 TS -30.60 160.69 710 710 ______P__PP_P_ SH211965 -1 -30.68 160.82 1001 -30.64 160.79 TC 27 1001 -30.37 160.05 2 -30.62 160.79 TC 27 1001 14 106
1965 SP MM 23:00:00 TS -30.74 161.21 1002 bom 759 759 ______O__PO_P_ SH211965 -1 -30.80 161.30 1002 -30.75 161.28 TC 25 1001 -30.40 160.30 2 -30.74 161.28 TC 25 1001 14 107
1965 SP MM 1965-02-05 00:00:00 TS -30.81 161.49 789 789 ______P__O__O_ -1 -30.84 161.48 1002 -30.80 161.50 TC 25 1002 2 -30.80 161.50 TC 25 1002 11 106
1965 SP MM 03:00:00 TS -30.93 162.02 838 838 ______P__P__P_ -1 -30.94 161.97 1003 -30.94 162.09 TC 22 1003 2 -30.91 161.99 TC 22 1003 9 105
1965 SP MM 06:00:00 TS -31.03 162.46 887 887 ______P__P__O_ -1 -31.03 162.40 1004 -31.07 162.58 TC 20 1004 2 -31.00 162.40 TC 20 1004 8 104
1965 SP MM 09:00:00 TS -31.13 162.90 927 927 ______P__P__P_ -1 -31.12 162.85 1005 -31.19 163.01 TC 17 1005 2 -31.09 162.87 TC 17 1005 8 104
1965 SP MM 11:00:00 TS -31.20 163.22 1006 bom 950 932 ______O__P__P_ -1 -31.20 163.20 1006 -31.26 163.27 TC 15 1005 -31.16 163.21 TC 15 1005 9 103
1965 SP MM 12:00:00 TS -31.23 163.40 932 871 ______P__O__O_ -1 -31.24 163.39 1006 -31.30 163.40 TC 15 1006 -31.20 163.40 TC 15 1006 11 103
1965 SP MM 15:00:00 TS -31.36 164.03 871 832 ______P_____P_ -1 -31.39 164.04 1007 TC -31.34 164.02 TC 12 1007 11 104
1965 SP MM 17:00:00 TS -31.46 164.48 1008 bom 824 807 ______O_____P_ -1 -31.50 164.50 1008 TC -31.45 164.47 TC 10 1007 12 104
1965 SP MM 18:00:00 TS -31.50 164.70 807 ____________O_ -1 TC -31.50 164.70 TC 10 1008 11 101